Time;durP1;ratioP1;P1;durP2;ratioP2;P2;SDS_P1;SDS_P2;PMS_P1;PMS_P2;Temp;Humidity;BMP_temperature;BMP_pressure;BME280_temperature;BME280_humidity;BME280_pressure;Samples;Min_cycle;Max_cycle;Signal;HPM_P1;HPM_P2
2022/10/11 00:01:26;;;;;;;;;;;;;;;7.32;80.56;102403.16;5010650;28;19913;-69
2022/10/11 00:03:51;;;;;;;;;;;;;;;7.28;80.46;102401.19;5009676;28;19975;-69
2022/10/11 00:06:17;;;;;;;;;;;;;;;7.24;80.42;102407.00;4992077;28;20434;-69
2022/10/11 00:08:42;;;;;;;;;;;;;;;7.23;80.78;102410.41;4993052;28;19921;-70
2022/10/11 00:11:08;;;;;;;;;;;;;;;7.22;80.85;102410.31;5010406;28;19914;-70
2022/10/11 00:13:34;;;;;;;;;;;;;;;7.20;80.89;102409.28;5009235;28;19918;-70
2022/10/11 00:15:59;;;;;;;;;;;;;;;7.22;80.61;102408.59;5010362;28;19925;-69
2022/10/11 00:18:24;;;;;;;;;;;;;;;7.22;80.50;102408.59;5011372;28;19917;-70
2022/10/11 00:20:49;;;;;;;;;;;;;;;7.19;80.31;102405.81;5014313;28;19940;-70
2022/10/11 00:23:15;;;;;;;;;;;;;;;7.14;80.44;102404.66;4996166;28;20000;-69
2022/10/11 00:25:40;;;;;;;;;;;;;;;7.07;80.41;102408.53;5013326;28;19917;-70
2022/10/11 00:28:05;;;;;;;;;;;;;;;7.01;80.61;102412.41;5013987;28;19968;-70
2022/10/11 00:30:30;;;;;;;;;;;;;;;6.95;80.53;102408.66;5013784;28;20200;-70
2022/10/11 00:32:55;;;;;;;;;;;;;;;6.97;80.89;102411.34;5013859;28;19918;-69
2022/10/11 00:35:21;;;;;;;;;;;;;;;6.94;80.78;102411.16;5012174;28;19996;-69
2022/10/11 00:37:46;;;;;;;;;;;;;;;6.88;81.06;102415.94;5012503;28;20377;-70
2022/10/11 00:40:16;;;;;;;;;;;;;;;6.85;81.03;102420.91;5012091;28;19931;-69
2022/10/11 00:42:41;;;;;;;;;;;;;;;6.85;80.70;102426.09;5012100;28;19979;-70
2022/10/11 00:45:25;;;;;;;;;;;;;;;6.81;80.74;102417.25;5010361;28;19918;-69
2022/10/11 00:47:50;;;;;;;;;;;;;;;6.77;80.67;102429.09;5009878;28;19918;-67
2022/10/11 00:50:16;;;;;;;;;;;;;;;6.73;80.88;102427.09;5011934;28;19917;-67
2022/10/11 00:52:42;;;;;;;;;;;;;;;6.65;80.86;102436.09;5011693;28;19917;-67
2022/10/11 00:55:10;;;;;;;;;;;;;;;6.60;81.25;102429.69;5011591;28;19921;-67
2022/10/11 00:57:37;;;;;;;;;;;;;;;6.60;81.38;102432.28;5013237;28;19918;-67
2022/10/11 01:00:05;;;;;;;;;;;;;;;6.59;80.97;102440.88;5013137;28;19914;-67
2022/10/11 01:02:30;;;;;;;;;;;;;;;6.57;81.28;102437.25;5012872;28;20432;-67
2022/10/11 01:04:55;;;;;;;;;;;;;;;6.54;81.20;102435.34;5012258;28;20000;-67
2022/10/11 01:07:21;;;;;;;;;;;;;;;6.56;81.70;102436.38;5012635;28;19917;-67
2022/10/11 01:09:46;;;;;;;;;;;;;;;6.59;81.11;102441.75;5013130;28;19917;-67
2022/10/11 01:12:15;;;;;;;;;;;;;;;6.59;81.14;102438.28;5013434;28;20331;-67
2022/10/11 01:14:52;;;;;;;;;;;;;;;6.53;80.93;102441.34;5012605;28;19921;-67
2022/10/11 01:17:33;;;;;;;;;;;;;;;6.48;81.23;102429.78;5012204;28;20332;-69
2022/10/11 01:20:22;;;;;;;;;;;;;;;6.42;81.10;102438.03;5013055;28;20377;-69
2022/10/11 01:22:47;;;;;;;;;;;;;;;6.38;81.07;102429.97;5012662;28;20012;-69
2022/10/11 01:25:34;;;;;;;;;;;;;;;6.36;81.27;102437.66;5011530;28;20371;-69
2022/10/11 01:28:02;;;;;;;;;;;;;;;6.32;81.02;102442.53;5009468;28;20015;-69
2022/10/11 01:30:29;;;;;;;;;;;;;;;6.29;81.01;102437.16;5012701;28;19921;-69
2022/10/11 01:32:57;;;;;;;;;;;;;;;6.27;80.80;102444.78;5012704;28;19995;-69
2022/10/11 01:35:26;;;;;;;;;;;;;;;6.21;80.88;102436.59;5011592;28;19921;-69
2022/10/11 01:37:59;;;;;;;;;;;;;;;6.17;81.08;102443.28;5012985;28;19920;-69
2022/10/11 01:40:31;;;;;;;;;;;;;;;6.16;81.17;102443.19;4994675;28;20449;-69
2022/10/11 01:42:57;;;;;;;;;;;;;;;6.14;81.34;102443.09;5012694;28;19921;-70
2022/10/11 01:45:23;;;;;;;;;;;;;;;6.14;81.41;102453.44;5011360;28;19925;-69
2022/10/11 01:47:59;;;;;;;;;;;;;;;6.12;81.52;102451.53;5012686;28;19917;-67
2022/10/11 01:50:40;;;;;;;;;;;;;;;6.14;82.18;102452.53;5012476;28;19921;-67
2022/10/11 01:53:18;;;;;;;;;;;;;;;6.17;82.26;102452.72;5009512;28;19917;-67
2022/10/11 01:55:52;;;;;;;;;;;;;;;6.19;81.49;102457.22;5009043;28;19978;-67
2022/10/11 01:58:27;;;;;;;;;;;;;;;6.19;81.62;102456.34;5007188;28;19917;-67
2022/10/11 02:01:14;;;;;;;;;;;;;;;6.16;81.57;102456.13;4999153;28;19914;-68
2022/10/11 02:03:46;;;;;;;;;;;;;;;6.14;81.50;102452.53;5012210;28;20012;-67
2022/10/11 02:06:16;;;;;;;;;;;;;;;6.12;81.71;102456.72;5010617;28;20340;-67
2022/10/11 02:08:44;;;;;;;;;;;;;;;6.05;81.48;102455.38;5012114;28;19913;-67
2022/10/11 02:11:17;;;;;;;;;;;;;;;6.00;81.36;102457.66;5012047;28;19906;-67
2022/10/11 02:13:45;;;;;;;;;;;;;;;5.98;81.45;102456.69;4994526;28;19914;-67
2022/10/11 02:16:13;;;;;;;;;;;;;;;5.98;81.83;102461.84;4993544;28;19921;-69
2022/10/11 02:18:42;;;;;;;;;;;;;;;6.00;81.78;102464.53;5011928;28;20041;-69
2022/10/11 02:21:09;;;;;;;;;;;;;;;5.98;81.79;102464.44;5011953;28;19917;-69
2022/10/11 02:23:44;;;;;;;;;;;;;;;5.97;81.44;102470.41;5011689;28;19913;-69
2022/10/11 02:26:10;;;;;;;;;;;;;;;5.97;81.80;102465.22;5010945;28;20288;-69
2022/10/11 02:28:36;;;;;;;;;;;;;;;5.99;81.69;102473.97;4994199;28;19913;-69
2022/10/11 02:31:05;;;;;;;;;;;;;;;6.01;81.66;102464.63;4993938;28;19925;-69
2022/10/11 02:33:36;;;;;;;;;;;;;;;5.99;81.27;102466.22;5011552;28;20278;-69
2022/10/11 02:36:04;;;;;;;;;;;;;;;5.98;81.72;102468.69;5010665;28;20483;-69
2022/10/11 02:38:36;;;;;;;;;;;;;;;5.98;81.28;102477.38;5011457;28;19964;-69
2022/10/11 02:41:09;;;;;;;;;;;;;;;5.91;81.10;102464.78;5010749;28;19961;-69
2022/10/11 02:43:40;;;;;;;;;;;;;;;5.83;81.58;102473.69;4993631;28;20277;-69
2022/10/11 02:46:09;;;;;;;;;;;;;;;5.77;81.19;102470.69;5010532;28;19917;-67
2022/10/11 02:48:34;;;;;;;;;;;;;;;5.74;81.76;102473.94;5011287;28;19937;-67
2022/10/11 02:51:01;;;;;;;;;;;;;;;5.73;81.80;102473.03;5010627;28;20007;-67
2022/10/11 02:53:26;;;;;;;;;;;;;;;5.74;81.34;102471.38;5007515;28;19932;-67
2022/10/11 02:55:52;;;;;;;;;;;;;;;5.72;81.78;102467.75;4990799;28;19925;-67
2022/10/11 02:58:17;;;;;;;;;;;;;;;5.69;81.50;102467.53;5009604;28;20381;-67
2022/10/11 03:00:43;;;;;;;;;;;;;;;5.63;81.24;102473.19;5009428;28;19964;-67
2022/10/11 03:03:08;;;;;;;;;;;;;;;5.57;81.38;102462.41;5009492;28;19917;-67
2022/10/11 03:05:39;;;;;;;;;;;;;;;5.54;81.31;102465.69;5008177;28;19941;-67
2022/10/11 03:08:04;;;;;;;;;;;;;;;5.50;81.61;102474.00;5003510;28;19944;-67
2022/10/11 03:10:30;;;;;;;;;;;;;;;5.46;81.50;102477.19;5009411;28;19980;-67
2022/10/11 03:12:55;;;;;;;;;;;;;;;5.42;81.87;102476.84;5009447;28;19928;-67
2022/10/11 03:15:20;;;;;;;;;;;;;;;5.41;81.85;102481.13;4991328;28;20312;-67
2022/10/11 03:17:45;;;;;;;;;;;;;;;5.41;81.91;102481.13;5002342;28;20012;-69
2022/10/11 03:20:10;;;;;;;;;;;;;;;5.38;81.55;102483.50;5006158;28;20407;-69
2022/10/11 03:22:36;;;;;;;;;;;;;;;5.36;82.03;102480.81;5009357;28;19937;-69
2022/10/11 03:25:01;;;;;;;;;;;;;;;5.36;82.10;102488.56;5008689;28;20011;-70
2022/10/11 03:27:26;;;;;;;;;;;;;;;5.36;82.20;102488.56;5006382;28;19928;-69
2022/10/11 03:29:51;;;;;;;;;;;;;;;5.35;81.87;102489.34;5008977;28;19937;-69
2022/10/11 03:32:16;;;;;;;;;;;;;;;5.35;82.22;102491.91;5008411;28;19922;-69
2022/10/11 03:34:42;;;;;;;;;;;;;;;5.34;82.26;102484.06;5009369;28;19992;-69
2022/10/11 03:37:07;;;;;;;;;;;;;;;5.32;81.79;102491.69;5009678;28;19933;-69
2022/10/11 03:39:32;;;;;;;;;;;;;;;5.32;81.73;102485.66;5009177;28;19924;-69
2022/10/11 03:41:57;;;;;;;;;;;;;;;5.29;81.86;102481.16;5006929;28;20016;-70
2022/10/11 03:44:23;;;;;;;;;;;;;;;5.29;81.60;102486.31;5006406;28;20436;-69
2022/10/11 03:46:48;;;;;;;;;;;;;;;5.30;82.11;102492.38;5005167;28;20502;-69
2022/10/11 03:49:13;;;;;;;;;;;;;;;5.33;81.70;102498.69;5001257;28;19925;-69
2022/10/11 03:51:38;;;;;;;;;;;;;;;5.35;82.17;102497.09;5007531;28;19921;-69
2022/10/11 03:54:03;;;;;;;;;;;;;;;5.35;81.93;102502.25;5009212;28;20498;-69
2022/10/11 03:56:28;;;;;;;;;;;;;;;5.35;82.04;102497.09;5010848;28;19922;-69
2022/10/11 03:58:54;;;;;;;;;;;;;;;5.34;82.13;102494.41;5010921;28;19917;-69
2022/10/11 04:01:19;;;;;;;;;;;;;;;5.33;82.05;102503.84;4993149;28;19967;-69
2022/10/11 04:03:45;;;;;;;;;;;;;;;5.29;81.55;102507.00;5007148;28;19922;-69
2022/10/11 04:06:10;;;;;;;;;;;;;;;5.21;82.04;102509.03;5011683;28;19918;-69
2022/10/11 04:08:35;;;;;;;;;;;;;;;5.17;82.12;102511.25;5010724;28;20426;-69
2022/10/11 04:11:00;;;;;;;;;;;;;;;5.14;81.90;102516.22;5010598;28;19924;-69
2022/10/11 04:13:25;;;;;;;;;;;;;;;5.12;82.33;102510.03;5012830;28;19968;-69
2022/10/11 04:15:51;;;;;;;;;;;;;;;5.12;81.95;102505.75;4995467;28;19928;-69
2022/10/11 04:18:16;;;;;;;;;;;;;;;5.11;82.09;102503.06;5012078;28;19925;-69
2022/10/11 04:20:41;;;;;;;;;;;;;;;5.11;82.21;102516.00;5012889;28;19949;-69
2022/10/11 04:23:06;;;;;;;;;;;;;;;5.06;81.75;102515.66;4995271;28;19924;-69
2022/10/11 04:25:32;;;;;;;;;;;;;;;5.07;81.97;102520.06;5005705;28;20312;-69
2022/10/11 04:27:57;;;;;;;;;;;;;;;5.07;82.19;102524.31;5011889;28;19921;-69
2022/10/11 04:30:22;;;;;;;;;;;;;;;5.06;82.13;102526.00;5012489;28;19917;-69
2022/10/11 04:32:47;;;;;;;;;;;;;;;5.05;82.36;102532.88;5012702;28;20012;-69
2022/10/11 04:35:13;;;;;;;;;;;;;;;5.02;82.31;102527.44;5012946;28;19953;-69
2022/10/11 04:37:38;;;;;;;;;;;;;;;4.98;81.90;102533.19;5011693;28;20017;-69
2022/10/11 04:40:04;;;;;;;;;;;;;;;4.97;81.88;102536.56;4949574;28;1802852;-69
2022/10/11 04:42:30;;;;;;;;;;;;;;;4.93;81.95;102533.66;5013913;28;19921;-69
2022/10/11 04:44:55;;;;;;;;;;;;;;;4.92;82.40;102535.31;5013783;28;19906;-69
2022/10/11 04:47:20;;;;;;;;;;;;;;;4.91;81.95;102530.94;5012529;28;19914;-69
2022/10/11 04:49:45;;;;;;;;;;;;;;;4.88;82.27;102533.28;5011785;28;20036;-69
2022/10/11 04:52:10;;;;;;;;;;;;;;;4.86;82.07;102540.03;5013471;28;19914;-69
2022/10/11 04:54:35;;;;;;;;;;;;;;;4.87;82.39;102544.41;5012446;28;19912;-69
2022/10/11 04:57:01;;;;;;;;;;;;;;;4.88;81.92;102543.59;5013433;28;20215;-69
2022/10/11 04:59:26;;;;;;;;;;;;;;;4.89;81.77;102550.59;5012643;28;20599;-69
2022/10/11 05:01:51;;;;;;;;;;;;;;;4.89;81.89;102535.09;5012435;28;19917;-69
2022/10/11 05:04:16;;;;;;;;;;;;;;;4.90;82.24;102547.22;5012134;28;19913;-69
2022/10/11 05:06:41;;;;;;;;;;;;;;;4.88;81.94;102538.44;5013329;28;20341;-69
2022/10/11 05:09:07;;;;;;;;;;;;;;;4.82;81.73;102538.91;5010693;28;19917;-69
2022/10/11 05:11:32;;;;;;;;;;;;;;;4.77;81.91;102547.09;5009105;28;19917;-69
2022/10/11 05:13:57;;;;;;;;;;;;;;;4.73;82.18;102555.41;5011082;28;20404;-69
2022/10/11 05:16:22;;;;;;;;;;;;;;;4.68;82.24;102547.31;5012823;28;19922;-69
2022/10/11 05:18:48;;;;;;;;;;;;;;;4.64;82.47;102546.16;5011931;28;19914;-69
2022/10/11 05:21:15;;;;;;;;;;;;;;;4.64;82.13;102550.44;5012582;28;19913;-69
2022/10/11 05:23:40;;;;;;;;;;;;;;;4.59;82.19;102550.09;5012798;28;19972;-69
2022/10/11 05:26:06;;;;;;;;;;;;;;;4.55;82.38;102555.81;5012749;28;20451;-69
2022/10/11 05:28:31;;;;;;;;;;;;;;;4.50;82.49;102555.47;5011997;28;19952;-69
2022/10/11 05:30:57;;;;;;;;;;;;;;;4.50;82.72;102554.56;5012807;28;19961;-69
2022/10/11 05:33:22;;;;;;;;;;;;;;;4.50;82.71;102560.63;5012771;28;19944;-69
2022/10/11 05:35:48;;;;;;;;;;;;;;;4.49;82.49;102561.41;5012886;28;20037;-69
2022/10/11 05:38:13;;;;;;;;;;;;;;;4.48;82.46;102558.72;5011622;28;20365;-69
2022/10/11 05:40:38;;;;;;;;;;;;;;;4.45;82.50;102566.22;5011986;28;20421;-69
2022/10/11 05:43:04;;;;;;;;;;;;;;;4.44;82.64;102570.47;5012764;28;20036;-69
2022/10/11 05:45:31;;;;;;;;;;;;;;;4.37;82.45;102575.94;5012369;28;19917;-69
2022/10/11 05:47:56;;;;;;;;;;;;;;;4.35;82.58;102575.81;4994217;28;19921;-69
2022/10/11 05:50:22;;;;;;;;;;;;;;;4.38;82.69;102579.44;5012445;28;19918;-69
2022/10/11 05:52:47;;;;;;;;;;;;;;;4.37;82.47;102570.78;5012599;28;19924;-70
2022/10/11 05:55:12;;;;;;;;;;;;;;;4.37;82.79;102570.78;5011434;28;19913;-70
2022/10/11 05:57:37;;;;;;;;;;;;;;;4.34;82.40;102584.38;5011398;28;19922;-70
2022/10/11 06:00:04;;;;;;;;;;;;;;;4.31;82.59;102586.69;5012279;28;19917;-70
2022/10/11 06:02:29;;;;;;;;;;;;;;;4.24;82.75;102579.25;5011356;28;20023;-70
2022/10/11 06:04:54;;;;;;;;;;;;;;;4.21;82.73;102581.59;5012416;28;20025;-70
2022/10/11 06:07:19;;;;;;;;;;;;;;;4.22;82.84;102588.56;5012139;28;20455;-70
2022/10/11 06:09:45;;;;;;;;;;;;;;;4.14;82.79;102595.72;5011305;28;19914;-70
2022/10/11 06:12:10;;;;;;;;;;;;;;;4.07;83.04;102598.59;5011819;28;19928;-70
2022/10/11 06:14:35;;;;;;;;;;;;;;;4.08;82.87;102591.75;5010744;28;20368;-70
2022/10/11 06:17:00;;;;;;;;;;;;;;;4.08;82.57;102597.81;5008094;28;20320;-70
2022/10/11 06:19:26;;;;;;;;;;;;;;;4.09;83.12;102602.19;5009937;28;20059;-70
2022/10/11 06:21:51;;;;;;;;;;;;;;;4.08;83.04;102604.66;5010931;28;20055;-70
2022/10/11 06:24:16;;;;;;;;;;;;;;;4.03;83.09;102609.47;5009797;28;19921;-70
2022/10/11 06:26:41;;;;;;;;;;;;;;;4.06;83.40;102608.81;5009563;28;19964;-70
2022/10/11 06:29:07;;;;;;;;;;;;;;;4.09;83.36;102609.94;5010811;28;19917;-70
2022/10/11 06:31:32;;;;;;;;;;;;;;;4.13;83.34;102614.56;5011060;28;20373;-70
2022/10/11 06:33:58;;;;;;;;;;;;;;;4.14;83.20;102612.88;4992376;28;19913;-70
2022/10/11 06:36:23;;;;;;;;;;;;;;;4.16;83.16;102613.91;5011610;28;19921;-70
2022/10/11 06:38:52;;;;;;;;;;;;;;;4.18;83.25;102617.50;5011468;28;19968;-70
2022/10/11 06:41:19;;;;;;;;;;;;;;;4.22;83.25;102616.94;5009179;28;20389;-70
2022/10/11 06:43:44;;;;;;;;;;;;;;;4.25;83.47;102619.75;5011526;28;19917;-70
2022/10/11 06:46:10;;;;;;;;;;;;;;;4.25;83.50;102619.75;5011298;28;19912;-70
2022/10/11 06:48:39;;;;;;;;;;;;;;;4.26;83.26;102623.22;5011676;28;19913;-70
2022/10/11 06:51:04;;;;;;;;;;;;;;;4.27;83.45;102623.38;5010747;28;19918;-70
2022/10/11 06:53:29;;;;;;;;;;;;;;;4.29;83.34;102637.28;5011042;28;19924;-70
2022/10/11 06:56:05;;;;;;;;;;;;;;;4.29;83.54;102629.56;5011290;28;19979;-70
2022/10/11 06:58:31;;;;;;;;;;;;;;;4.33;83.92;102628.09;4993435;28;19944;-70
2022/10/11 07:01:00;;;;;;;;;;;;;;;4.36;83.89;102633.53;4992625;28;19956;-70
2022/10/11 07:03:26;;;;;;;;;;;;;;;4.40;83.73;102637.22;5010357;28;19956;-70
2022/10/11 07:05:51;;;;;;;;;;;;;;;4.43;83.44;102630.63;5009895;28;20008;-70
2022/10/11 07:08:16;;;;;;;;;;;;;;;4.49;84.11;102635.34;5009473;28;19922;-70
2022/10/11 07:10:41;;;;;;;;;;;;;;;4.51;83.67;102638.97;5008753;28;20360;-70
2022/10/11 07:13:07;;;;;;;;;;;;;;;4.54;84.17;102644.34;5008687;28;20380;-70
2022/10/11 07:15:36;;;;;;;;;;;;;;;4.59;84.25;102643.03;5007463;28;19948;-70
2022/10/11 07:18:02;;;;;;;;;;;;;;;4.63;84.18;102646.75;5007527;28;19924;-70
2022/10/11 07:20:27;;;;;;;;;;;;;;;4.68;84.26;102643.72;5008136;28;20287;-70
2022/10/11 07:22:52;;;;;;;;;;;;;;;4.73;84.30;102648.34;5005373;28;19921;-70
2022/10/11 07:25:17;;;;;;;;;;;;;;;4.80;84.35;102648.94;5008319;28;19917;-70
2022/10/11 07:27:42;;;;;;;;;;;;;;;4.89;84.52;102646.16;5006456;28;20008;-70
2022/10/11 07:30:08;;;;;;;;;;;;;;;4.98;84.59;102652.03;5010659;28;19960;-70
2022/10/11 07:32:33;;;;;;;;;;;;;;;5.09;84.54;102651.94;5010922;28;20076;-70
2022/10/11 07:34:58;;;;;;;;;;;;;;;5.16;84.41;102657.66;5005173;28;20000;-70
2022/10/11 07:37:23;;;;;;;;;;;;;;;5.26;84.44;102655.75;5005574;28;19929;-70
2022/10/11 07:39:48;;;;;;;;;;;;;;;5.35;84.43;102664.22;5006217;28;20316;-70
2022/10/11 07:42:14;;;;;;;;;;;;;;;5.43;84.07;102654.44;5006517;28;20389;-70
2022/10/11 07:44:39;;;;;;;;;;;;;;;5.50;84.00;102657.56;5010041;28;19956;-70
2022/10/11 07:47:04;;;;;;;;;;;;;;;5.56;84.41;102652.88;5007961;28;19929;-70
2022/10/11 07:49:29;;;;;;;;;;;;;;;5.64;84.52;102655.13;5008391;28;19909;-70
2022/10/11 07:51:54;;;;;;;;;;;;;;;5.69;84.46;102654.66;5010141;28;20048;-70
2022/10/11 07:54:20;;;;;;;;;;;;;;;5.77;85.04;102665.56;5006714;28;19917;-70
2022/10/11 07:56:45;;;;;;;;;;;;;;;5.86;84.78;102661.03;5008649;28;19921;-70
2022/10/11 07:59:10;;;;;;;;;;;;;;;5.96;85.06;102664.31;5006658;28;19967;-71
2022/10/11 08:01:35;;;;;;;;;;;;;;;6.04;85.29;102664.09;5009646;28;19924;-70
2022/10/11 08:04:00;;;;;;;;;;;;;;;6.13;85.85;102657.78;5010678;28;20388;-71
2022/10/11 08:06:29;;;;;;;;;;;;;;;6.22;86.45;102669.66;5008338;28;20407;-71
2022/10/11 08:08:55;;;;;;;;;;;;;;;6.31;85.96;102677.19;5009570;28;19928;-71
2022/10/11 08:11:28;;;;;;;;;;;;;;;6.37;86.36;102671.53;5008444;28;19922;-71
2022/10/11 08:13:53;;;;;;;;;;;;;;;6.46;86.16;102668.69;5008656;28;19983;-71
2022/10/11 08:16:19;;;;;;;;;;;;;;;6.52;86.53;102671.75;5010237;28;20377;-70
2022/10/11 08:18:44;;;;;;;;;;;;;;;6.62;86.76;102679.34;5010550;28;19923;-70
2022/10/11 08:21:12;;;;;;;;;;;;;;;6.72;87.10;102683.44;5010506;28;19917;-70
2022/10/11 08:23:37;;;;;;;;;;;;;;;6.81;87.50;102676.34;5009441;28;19921;-70
2022/10/11 08:26:03;;;;;;;;;;;;;;;6.91;87.92;102683.06;5009863;28;19918;-70
2022/10/11 08:28:28;;;;;;;;;;;;;;;7.01;88.24;102687.13;5008557;28;19925;-68
2022/10/11 08:30:54;;;;;;;;;;;;;;;7.10;88.20;102683.47;5010619;28;19925;-68
2022/10/11 08:33:21;;;;;;;;;;;;;;;7.19;87.91;102680.59;5009953;28;19980;-68
2022/10/11 08:35:47;;;;;;;;;;;;;;;7.28;88.90;102680.31;5006337;28;19918;-68
2022/10/11 08:38:12;;;;;;;;;;;;;;;7.36;88.17;102686.94;5009095;28;19928;-68
2022/10/11 08:40:43;;;;;;;;;;;;;;;7.46;89.22;102689.34;5006753;28;19922;-68
2022/10/11 08:43:13;;;;;;;;;;;;;;;7.57;89.34;102692.63;5008939;28;19957;-68
2022/10/11 08:45:49;;;;;;;;;;;;;;;7.68;89.04;102685.56;5006109;28;19968;-68
2022/10/11 08:48:16;;;;;;;;;;;;;;;7.79;89.04;102686.22;5011276;28;19921;-67
2022/10/11 08:50:43;;;;;;;;;;;;;;;7.89;89.10;102687.72;5013849;28;19920;-67
2022/10/11 08:53:17;;;;;;;;;;;;;;;7.99;88.84;102697.91;5011812;28;19941;-67
2022/10/11 08:55:44;;;;;;;;;;;;;;;8.08;89.47;102690.72;5013382;28;20392;-67
2022/10/11 08:58:12;;;;;;;;;;;;;;;8.20;88.62;102693.19;5013601;28;19953;-70
2022/10/11 09:00:39;;;;;;;;;;;;;;;8.32;88.58;102706.03;5013558;28;20392;-70
2022/10/11 09:03:23;;;;;;;;;;;;;;;8.40;88.96;102699.66;5012548;28;19944;-70
2022/10/11 09:05:48;;;;;;;;;;;;;;;8.49;88.77;102702.84;5013395;28;19964;-69
2022/10/11 09:08:21;;;;;;;;;;;;;;;8.58;89.06;102704.22;4994987;28;19929;-70
2022/10/11 09:10:52;;;;;;;;;;;;;;;8.65;89.06;102704.69;5013400;28;20273;-70
2022/10/11 09:13:34;;;;;;;;;;;;;;;8.77;88.42;102708.84;5012312;28;20017;-70
2022/10/11 09:16:08;;;;;;;;;;;;;;;8.86;88.14;102693.78;4999293;28;20148;-70
2022/10/11 09:18:45;;;;;;;;;;;;;;;8.96;87.92;102705.66;5013068;28;20266;-70
2022/10/11 09:21:19;;;;;;;;;;;;;;;9.09;87.20;102702.09;5012989;28;19924;-70
2022/10/11 09:23:45;;;;;;;;;;;;;;;9.22;87.07;102708.13;5011217;28;19925;-70
2022/10/11 09:26:13;;;;;;;;;;;;;;;9.34;86.67;102702.72;5012476;28;19944;-71
2022/10/11 09:28:44;;;;;;;;;;;;;;;9.43;85.36;102698.84;4994582;28;19925;-71
2022/10/11 09:31:10;;;;;;;;;;;;;;;9.52;86.19;102702.91;5010098;28;20017;-71
2022/10/11 09:33:37;;;;;;;;;;;;;;;9.59;85.98;102701.56;5009218;28;20028;-71
2022/10/11 09:36:12;;;;;;;;;;;;;;;9.65;85.77;102698.41;5008114;28;19932;-71
2022/10/11 09:39:01;;;;;;;;;;;;;;;9.71;85.58;102699.63;5010640;28;20016;-71
2022/10/11 09:41:35;;;;;;;;;;;;;;;9.77;85.18;102701.69;5007551;28;19922;-71
2022/10/11 09:44:01;;;;;;;;;;;;;;;9.82;85.36;102705.47;5009346;28;19917;-71
2022/10/11 09:46:36;;;;;;;;;;;;;;;9.87;85.43;102704.00;5008991;28;20300;-71
2022/10/11 09:49:06;;;;;;;;;;;;;;;9.92;85.31;102704.25;5012636;28;19948;-71
2022/10/11 09:51:32;;;;;;;;;;;;;;;9.97;84.94;102691.53;5009094;28;20027;-71
2022/10/11 09:54:01;;;;;;;;;;;;;;;10.02;84.87;102700.47;5012049;28;20376;-71
2022/10/11 09:56:27;;;;;;;;;;;;;;;10.07;84.47;102701.63;4991759;28;20397;-69
2022/10/11 09:59:05;;;;;;;;;;;;;;;10.13;83.85;102699.38;5011428;28;20440;-69
2022/10/11 10:01:32;;;;;;;;;;;;;;;10.20;83.76;102693.69;5010262;28;20079;-69
2022/10/11 10:04:08;;;;;;;;;;;;;;;10.28;83.79;102701.91;5012616;28;19921;-69
2022/10/11 10:06:33;;;;;;;;;;;;;;;10.35;83.70;102700.56;5010489;28;19926;-69
2022/10/11 10:09:34;;;;;;;;;;;;;;;10.42;83.42;102703.59;5008644;28;19922;-69
2022/10/11 10:12:09;;;;;;;;;;;;;;;10.56;82.80;102703.47;4938068;29;19914;-69
2022/10/11 10:14:34;;;;;;;;;;;;;;;10.67;82.67;102701.41;5005251;28;20368;-69
2022/10/11 10:17:20;;;;;;;;;;;;;;;10.78;82.43;102700.28;5017097;28;19976;-69
2022/10/11 10:19:50;;;;;;;;;;;;;;;10.96;82.32;102700.31;5011963;28;19917;-69
2022/10/11 10:22:17;;;;;;;;;;;;;;;11.14;81.47;102700.41;5019604;28;20203;-69
2022/10/11 10:24:43;;;;;;;;;;;;;;;11.32;81.53;102695.19;5020190;28;19918;-69
2022/10/11 10:27:21;;;;;;;;;;;;;;;11.49;81.32;102683.00;5010072;28;19927;-69
2022/10/11 10:29:59;;;;;;;;;;;;;;;11.69;80.42;102683.06;5006579;28;19917;-69
2022/10/11 10:32:27;;;;;;;;;;;;;;;11.89;79.18;102697.09;5009593;28;19957;-69
2022/10/11 10:35:07;;;;;;;;;;;;;;;12.07;78.86;102695.41;5010849;28;19980;-69
2022/10/11 10:37:35;;;;;;;;;;;;;;;12.23;78.08;102689.19;5011555;28;19917;-72
2022/10/11 10:40:07;;;;;;;;;;;;;;;12.37;77.39;102697.66;5010462;28;19922;-72
2022/10/11 10:42:32;;;;;;;;;;;;;;;12.51;77.36;102695.66;5009603;28;19953;-72
2022/10/11 10:44:58;;;;;;;;;;;;;;;12.70;77.40;102695.69;5009826;28;19952;-71
2022/10/11 10:47:33;;;;;;;;;;;;;;;12.87;77.08;102695.53;5010596;28;20369;-72
2022/10/11 10:50:14;;;;;;;;;;;;;;;13.05;77.22;102693.72;5011519;28;19960;-72
2022/10/11 10:52:42;;;;;;;;;;;;;;;13.22;76.86;102685.69;5011657;28;20296;-72
2022/10/11 10:55:20;;;;;;;;;;;;;;;13.37;76.08;102688.97;5010370;28;19997;-72
2022/10/11 10:57:57;;;;;;;;;;;;;;;13.53;75.76;102693.13;5011442;28;19940;-72
2022/10/11 11:00:23;;;;;;;;;;;;;;;13.66;75.40;102684.06;5009509;28;19922;-72
2022/10/11 11:02:48;;;;;;;;;;;;;;;13.77;75.63;102679.22;5010861;28;19996;-72
2022/10/11 11:05:22;;;;;;;;;;;;;;;13.91;73.67;102685.03;5010370;28;20000;-72
2022/10/11 11:07:53;;;;;;;;;;;;;;;14.01;73.95;102676.69;5011142;28;19914;-71
2022/10/11 11:10:24;;;;;;;;;;;;;;;14.18;73.99;102679.97;5010999;28;19967;-71
2022/10/11 11:13:07;;;;;;;;;;;;;;;14.26;73.55;102682.88;5010934;28;19917;-72
2022/10/11 11:15:40;;;;;;;;;;;;;;;14.34;73.83;102673.59;5010390;28;19928;-71
2022/10/11 11:18:20;;;;;;;;;;;;;;;14.43;72.90;102673.91;5014227;28;19964;-72
2022/10/11 11:20:51;;;;;;;;;;;;;;;14.58;72.71;102670.06;5015625;28;20463;-72
2022/10/11 11:23:22;;;;;;;;;;;;;;;14.74;72.90;102666.28;5010546;28;19913;-72
2022/10/11 11:26:03;;;;;;;;;;;;;;;14.88;71.48;102672.03;5006838;28;19925;-72
2022/10/11 11:28:46;;;;;;;;;;;;;;;14.99;71.24;102667.16;5009006;28;19948;-72
2022/10/11 11:31:20;;;;;;;;;;;;;;;15.12;71.47;102658.88;5006983;28;19917;-71
2022/10/11 11:34:04;;;;;;;;;;;;;;;15.27;70.66;102653.25;5009984;28;19948;-71
2022/10/11 11:36:46;;;;;;;;;;;;;;;15.39;71.40;102658.88;5009831;28;19926;-69
2022/10/11 11:39:15;;;;;;;;;;;;;;;15.46;69.93;102650.38;5008118;28;20000;-69
2022/10/11 11:41:44;;;;;;;;;;;;;;;15.53;69.32;102653.22;5005209;28;19925;-69
2022/10/11 11:44:14;;;;;;;;;;;;;;;15.61;69.27;102655.25;5008216;28;19917;-69
2022/10/11 11:46:53;;;;;;;;;;;;;;;15.72;69.71;102647.69;5010262;28;19921;-69
2022/10/11 11:49:22;;;;;;;;;;;;;;;15.73;69.90;102646.84;5007777;28;19997;-69
2022/10/11 11:51:48;;;;;;;;;;;;;;;15.78;69.81;102641.72;5008317;28;19921;-69
2022/10/11 11:54:32;;;;;;;;;;;;;;;15.81;68.71;102644.47;5007573;28;19918;-69
2022/10/11 11:57:00;;;;;;;;;;;;;;;15.87;68.86;102635.91;5009495;28;19922;-69
2022/10/11 11:59:25;;;;;;;;;;;;;;;15.94;68.92;102644.00;5009654;28;19917;-69
2022/10/11 12:01:53;;;;;;;;;;;;;;;16.01;68.61;102637.22;5008150;28;19975;-69
2022/10/11 12:04:25;;;;;;;;;;;;;;;16.05;65.49;102628.56;5007711;28;20009;-69
2022/10/11 12:07:08;;;;;;;;;;;;;;;16.03;66.57;102617.09;5009896;28;20024;-69
2022/10/11 12:09:35;;;;;;;;;;;;;;;16.06;68.23;102619.84;5010565;28;20052;-69
2022/10/11 12:12:02;;;;;;;;;;;;;;;16.08;67.97;102626.03;5007784;28;19929;-69
2022/10/11 12:14:33;;;;;;;;;;;;;;;16.11;66.83;102620.84;5010457;28;20423;-69
2022/10/11 12:17:07;;;;;;;;;;;;;;;16.17;67.66;102615.75;5011816;28;20413;-69
2022/10/11 12:19:33;;;;;;;;;;;;;;;16.22;66.23;102623.81;5010164;28;19921;-69
2022/10/11 12:22:17;;;;;;;;;;;;;;;16.26;61.91;102617.75;5013077;28;19928;-69
2022/10/11 12:25:20;;;;;;;;;;;;;;;16.14;64.48;102615.69;5014090;28;19913;-69
2022/10/11 12:27:50;;;;;;;;;;;;;;;15.97;63.78;102619.56;5012221;28;19918;-69
2022/10/11 12:30:33;;;;;;;;;;;;;;;15.84;65.80;102615.66;5013344;28;19921;-69
2022/10/11 12:33:05;;;;;;;;;;;;;;;15.80;66.13;102619.94;5011881;28;19923;-69
2022/10/11 12:35:30;;;;;;;;;;;;;;;15.89;66.78;102616.69;5011917;28;19917;-69
2022/10/11 12:38:14;;;;;;;;;;;;;;;15.94;63.09;102620.34;5011978;28;20400;-69
2022/10/11 12:40:40;;;;;;;;;;;;;;;15.96;64.54;102612.50;5010138;28;20407;-69
2022/10/11 12:43:15;;;;;;;;;;;;;;;15.99;65.07;102605.63;5012733;28;19922;-69
2022/10/11 12:45:46;;;;;;;;;;;;;;;16.11;64.21;102606.81;5013869;28;19917;-69
2022/10/11 12:48:17;;;;;;;;;;;;;;;16.06;64.86;102611.97;5010959;28;20304;-69
2022/10/11 12:50:45;;;;;;;;;;;;;;;16.03;64.75;102611.84;5009212;28;19932;-69
2022/10/11 12:53:21;;;;;;;;;;;;;;;16.09;64.90;102606.78;5012532;28;19928;-69